Time;durP1;ratioP1;P1;durP2;ratioP2;P2;SDS_P1;SDS_P2;PMS_P1;PMS_P2;Temp;Humidity;BMP_temperature;BMP_pressure;BME280_temperature;BME280_humidity;BME280_pressure;Samples;Min_cycle;Max_cycle;Signal;HPM_P1;HPM_P2
2022/08/14 00:00:19;;;;;;;3.65;2.33;;;21.20;84.00;;;;;;5092954;28;20062;-77
2022/08/14 00:02:45;;;;;;;3.53;2.22;;;21.10;84.30;;;;;;5081867;28;20039;-77
2022/08/14 00:05:14;;;;;;;4.15;2.10;;;21.10;84.60;;;;;;5073753;28;20550;-77
2022/08/14 00:07:40;;;;;;;3.75;2.20;;;20.90;84.90;;;;;;5094443;28;20043;-78
2022/08/14 00:10:08;;;;;;;3.88;2.47;;;20.80;85.20;;;;;;5083100;28;20141;-77
2022/08/14 00:12:37;;;;;;;5.40;2.53;;;20.90;85.60;;;;;;5094481;28;20041;-77
2022/08/14 00:15:10;;;;;;;4.13;2.45;;;20.90;85.80;;;;;;5091495;28;20425;-77
2022/08/14 00:17:37;;;;;;;4.07;2.38;;;20.80;85.80;;;;;;5092171;28;20567;-77
2022/08/14 00:20:04;;;;;;;4.57;2.13;;;20.90;85.80;;;;;;5081690;28;20485;-77
2022/08/14 00:22:30;;;;;;;6.38;2.80;;;20.80;85.90;;;;;;5090104;28;20039;-77
2022/08/14 00:24:56;;;;;;;6.05;2.58;;;20.80;86.20;;;;;;5094914;28;20580;-77
2022/08/14 00:27:21;;;;;;;3.67;2.33;;;20.70;86.70;;;;;;5098480;28;20175;-78
2022/08/14 00:29:47;;;;;;;5.72;2.47;;;20.70;87.10;;;;;;5095402;28;20431;-78
2022/08/14 00:32:13;;;;;;;4.13;2.33;;;20.60;87.60;;;;;;5077280;28;20036;-78
2022/08/14 00:34:38;;;;;;;3.63;2.35;;;20.60;88.10;;;;;;5080449;28;20122;-77
2022/08/14 00:37:04;;;;;;;3.78;2.40;;;20.50;88.50;;;;;;5090719;28;20039;-78
2022/08/14 00:39:30;;;;;;;3.63;2.30;;;20.50;88.80;;;;;;5094369;28;20438;-77
2022/08/14 00:41:56;;;;;;;3.67;2.15;;;20.40;88.90;;;;;;5089480;28;20409;-77
2022/08/14 00:44:21;;;;;;;3.42;2.13;;;20.40;89.10;;;;;;5075630;28;20043;-77
2022/08/14 00:46:48;;;;;;;5.78;2.30;;;20.40;89.50;;;;;;5097112;28;20058;-77
2022/08/14 00:49:14;;;;;;;3.22;2.08;;;20.30;89.70;;;;;;5083128;28;20117;-77
2022/08/14 00:51:42;;;;;;;3.80;2.40;;;20.40;90.00;;;;;;5078657;28;20539;-77
2022/08/14 00:54:09;;;;;;;4.32;2.65;;;20.30;90.10;;;;;;5095736;28;20043;-77
2022/08/14 00:56:36;;;;;;;4.68;2.78;;;20.20;90.30;;;;;;5095955;28;20027;-77
2022/08/14 00:59:03;;;;;;;4.45;2.40;;;20.30;90.50;;;;;;5090961;28;20036;-77
2022/08/14 01:01:28;;;;;;;4.47;2.35;;;20.30;90.50;;;;;;5098523;28;20043;-77
2022/08/14 01:03:57;;;;;;;4.00;2.35;;;20.30;90.60;;;;;;5097454;28;20504;-77
2022/08/14 01:06:25;;;;;;;3.85;2.35;;;20.30;90.70;;;;;;5088797;28;20040;-78
2022/08/14 01:08:51;;;;;;;4.18;2.50;;;20.30;90.70;;;;;;5097416;28;20045;-77
2022/08/14 01:11:16;;;;;;;3.97;2.42;;;20.30;90.70;;;;;;5094405;28;20040;-77
2022/08/14 01:13:44;;;;;;;3.78;2.33;;;20.30;90.80;;;;;;5090358;28;20036;-77
2022/08/14 01:16:13;;;;;;;3.10;2.15;;;20.30;90.90;;;;;;5099233;28;20040;-77
2022/08/14 01:21:32;;;;;;;5.28;2.50;;;20.30;91.00;;;;;;5098546;28;20379;-77
2022/08/14 01:23:59;;;;;;;4.28;2.67;;;20.20;91.30;;;;;;5088435;28;20038;-77
2022/08/14 01:26:27;;;;;;;3.88;2.38;;;20.30;91.00;;;;;;5078281;28;20037;-77
2022/08/14 01:28:54;;;;;;;5.38;2.88;;;20.30;91.00;;;;;;5078414;28;20033;-77
2022/08/14 01:31:22;;;;;;;4.53;2.50;;;20.30;91.00;;;;;;5075644;28;20035;-77
2022/08/14 01:33:52;;;;;;;3.25;2.08;;;20.30;90.80;;;;;;5097063;28;20035;-77
2022/08/14 01:36:22;;;;;;;4.18;2.60;;;20.30;91.00;;;;;;5090210;28;20086;-77
2022/08/14 01:38:50;;;;;;;3.35;2.30;;;20.30;90.90;;;;;;5098068;28;20047;-77
2022/08/14 01:41:19;;;;;;;4.63;2.88;;;20.30;91.00;;;;;;5095227;28;20027;-77
2022/08/14 01:43:51;;;;;;;5.45;2.92;;;20.30;91.20;;;;;;5080602;28;20051;-77
2022/08/14 01:46:24;;;;;;;4.40;2.78;;;20.20;91.40;;;;;;5097399;28;20032;-77
2022/08/14 01:48:53;;;;;;;6.22;3.42;;;20.20;91.70;;;;;;5095427;28;20480;-77
2022/08/14 01:51:21;;;;;;;4.43;2.72;;;20.20;91.50;;;;;;5072736;28;20066;-77
2022/08/14 01:53:57;;;;;;;5.00;2.65;;;20.20;91.90;;;;;;5080859;28;20039;-77
2022/08/14 01:56:36;;;;;;;3.95;2.35;;;20.10;92.10;;;;;;5096572;28;20104;-77
2022/08/14 01:59:07;;;;;;;4.00;2.40;;;20.10;91.70;;;;;;5095972;28;20348;-77
2022/08/14 02:01:34;;;;;;;4.80;2.50;;;20.10;91.60;;;;;;5093811;28;20498;-77
2022/08/14 02:04:01;;;;;;;6.18;3.20;;;20.20;91.40;;;;;;5100625;28;20049;-77
2022/08/14 02:06:28;;;;;;;5.03;2.90;;;20.20;91.30;;;;;;5093277;28;20496;-77
2022/08/14 02:08:53;;;;;;;5.38;3.30;;;20.20;91.20;;;;;;5097611;28;20043;-77
2022/08/14 02:11:22;;;;;;;6.75;2.60;;;20.20;91.10;;;;;;5074327;28;20058;-77
2022/08/14 02:14:09;;;;;;;5.68;2.97;;;20.30;91.10;;;;;;5083502;28;20043;-77
2022/08/14 02:16:39;;;;;;;4.45;2.67;;;20.30;92.10;;;;;;5099267;28;20031;-77
2022/08/14 02:19:08;;;;;;;6.43;3.15;;;20.30;91.20;;;;;;5096431;28;20127;-77
2022/08/14 02:21:35;;;;;;;5.20;2.92;;;20.20;91.20;;;;;;5076549;28;20055;-77
2022/08/14 02:24:03;;;;;;;4.22;2.90;;;20.30;91.10;;;;;;5101732;28;20050;-77
2022/08/14 02:26:32;;;;;;;5.43;3.58;;;20.30;91.20;;;;;;5088827;28;20052;-76
2022/08/14 02:29:02;;;;;;;4.78;2.50;;;20.20;91.20;;;;;;5102386;28;20043;-76
2022/08/14 02:31:31;;;;;;;3.70;2.47;;;20.30;91.20;;;;;;5082644;28;20509;-76
2022/08/14 02:34:03;;;;;;;4.70;2.80;;;20.20;91.40;;;;;;5097927;28;20040;-76
2022/08/14 02:36:29;;;;;;;4.10;2.65;;;20.20;91.70;;;;;;5099493;28;20436;-77
2022/08/14 02:38:56;;;;;;;2.72;2.05;;;20.20;91.50;;;;;;5079256;28;20044;-77
2022/08/14 02:41:22;;;;;;;4.70;2.90;;;20.10;91.60;;;;;;5098768;28;20125;-77
2022/08/14 02:43:48;;;;;;;4.85;3.20;;;20.20;91.70;;;;;;5100156;28;20040;-77
2022/08/14 02:46:15;;;;;;;5.38;2.70;;;20.10;91.70;;;;;;5099230;28;20029;-76
2022/08/14 02:48:41;;;;;;;4.70;2.40;;;20.10;91.80;;;;;;5077835;28;20388;-77
2022/08/14 02:51:13;;;;;;;5.07;2.97;;;20.10;91.80;;;;;;5085699;28;20042;-77
2022/08/14 02:53:44;;;;;;;4.80;2.85;;;20.10;92.00;;;;;;5093253;28;20046;-77
2022/08/14 02:56:14;;;;;;;4.63;2.70;;;20.00;92.20;;;;;;5096684;28;20404;-77
2022/08/14 02:58:43;;;;;;;4.47;2.60;;;20.00;92.10;;;;;;5073761;28;20041;-76
2022/08/14 03:01:09;;;;;;;6.85;3.00;;;20.00;92.20;;;;;;5083895;28;20082;-77
2022/08/14 03:03:36;;;;;;;4.32;2.65;;;19.90;92.10;;;;;;5084454;28;20039;-77
2022/08/14 03:06:06;;;;;;;4.78;2.80;;;20.00;92.30;;;;;;5098856;28;20067;-76
2022/08/14 03:08:33;;;;;;;4.55;2.38;;;20.00;92.30;;;;;;5071622;28;20485;-77
2022/08/14 03:11:05;;;;;;;4.40;2.63;;;19.90;92.10;;;;;;5078603;28;20031;-77
2022/08/14 03:13:34;;;;;;;5.50;3.30;;;20.00;92.10;;;;;;5094714;28;20281;-76
2022/08/14 03:16:01;;;;;;;4.85;3.08;;;20.00;92.00;;;;;;5078803;28;20390;-77
2022/08/14 03:18:28;;;;;;;4.65;2.60;;;20.00;92.10;;;;;;5090176;28;20122;-77
2022/08/14 03:20:53;;;;;;;5.50;3.20;;;19.90;92.10;;;;;;5080771;28;20051;-76
2022/08/14 03:23:20;;;;;;;7.97;3.70;;;20.00;92.10;;;;;;5087974;28;20481;-77
2022/08/14 03:25:46;;;;;;;4.75;2.80;;;19.90;92.20;;;;;;5079210;28;20064;-77
2022/08/14 03:28:13;;;;;;;5.93;3.35;;;20.00;92.20;;;;;;5099592;28;20354;-77
2022/08/14 03:30:39;;;;;;;8.15;3.08;;;19.90;92.20;;;;;;5097495;28;20042;-77
2022/08/14 03:33:06;;;;;;;4.50;2.92;;;20.00;92.20;;;;;;5087454;28;20039;-77
2022/08/14 03:35:33;;;;;;;4.82;3.10;;;19.90;92.20;;;;;;5099402;28;20055;-77
2022/08/14 03:38:10;;;;;;;5.32;3.00;;;19.90;92.30;;;;;;5087553;28;20028;-77
2022/08/14 03:40:37;;;;;;;6.55;3.85;;;19.90;92.80;;;;;;5086968;28;20052;-77
2022/08/14 03:43:08;;;;;;;4.88;3.05;;;19.90;92.40;;;;;;5077889;28;20504;-77
2022/08/14 03:45:35;;;;;;;5.20;3.25;;;19.80;92.60;;;;;;5093873;28;20058;-77
2022/08/14 03:48:18;;;;;;;4.72;2.65;;;19.80;92.50;;;;;;5097415;28;20515;-77
2022/08/14 03:50:50;;;;;;;4.82;2.53;;;19.80;93.00;;;;;;5091115;28;20046;-77
2022/08/14 03:53:17;;;;;;;5.82;3.22;;;19.70;92.80;;;;;;5094102;28;20162;-77
2022/08/14 03:55:43;;;;;;;5.28;3.25;;;19.70;92.70;;;;;;5089305;28;20453;-77
2022/08/14 03:58:09;;;;;;;6.28;3.40;;;19.60;92.70;;;;;;5091669;28;20515;-77
2022/08/14 04:00:35;;;;;;;5.25;3.10;;;19.60;92.90;;;;;;5083019;28;20404;-77
2022/08/14 04:03:04;;;;;;;5.68;3.88;;;19.60;93.00;;;;;;5095993;28;20534;-77
2022/08/14 04:05:30;;;;;;;4.88;3.03;;;19.60;93.00;;;;;;5102202;28;20055;-77
2022/08/14 04:07:57;;;;;;;5.80;3.47;;;19.60;93.00;;;;;;5074969;28;20032;-77
2022/08/14 04:10:23;;;;;;;4.40;2.67;;;19.60;93.10;;;;;;5092118;28;20114;-77
2022/08/14 04:12:49;;;;;;;6.10;3.45;;;19.60;93.10;;;;;;5096336;28;20381;-77
2022/08/14 04:15:18;;;;;;;6.45;3.15;;;19.60;93.10;;;;;;5087614;28;20511;-77
2022/08/14 04:17:45;;;;;;;5.35;3.28;;;19.60;93.20;;;;;;5100229;28;20057;-77
2022/08/14 04:20:11;;;;;;;5.57;3.30;;;19.60;93.20;;;;;;5091374;28;20518;-77
2022/08/14 04:22:37;;;;;;;4.82;3.35;;;19.60;93.30;;;;;;5087116;28;20210;-77
2022/08/14 04:25:03;;;;;;;6.72;3.63;;;19.60;93.40;;;;;;5091719;28;20040;-77
2022/08/14 04:27:29;;;;;;;5.82;3.10;;;19.60;93.40;;;;;;5093014;28;20035;-77
2022/08/14 04:29:56;;;;;;;5.10;2.95;;;19.60;93.50;;;;;;5091524;28;20039;-77
2022/08/14 04:32:25;;;;;;;5.93;3.20;;;19.60;93.50;;;;;;5094245;28;20050;-77
2022/08/14 04:34:51;;;;;;;5.00;3.45;;;19.60;93.60;;;;;;5076931;28;20043;-77
2022/08/14 04:45:39;;;;;;;9.93;3.80;;;19.50;93.80;;;;;;5100023;28;20044;-77
2022/08/14 04:48:14;;;;;;;6.20;3.75;;;19.50;93.80;;;;;;5101386;28;20036;-77
2022/08/14 04:50:42;;;;;;;5.30;3.42;;;19.40;94.10;;;;;;5098078;28;20126;-77
2022/08/14 04:53:09;;;;;;;7.05;3.72;;;19.50;94.00;;;;;;5073001;28;20048;-77
2022/08/14 04:55:35;;;;;;;6.03;3.75;;;19.50;94.00;;;;;;5095113;28;20422;-77
2022/08/14 04:58:04;;;;;;;7.47;3.83;;;19.50;94.10;;;;;;5098957;28;20032;-77
2022/08/14 05:00:30;;;;;;;6.68;4.03;;;19.50;94.20;;;;;;5080159;28;20485;-77
2022/08/14 05:02:55;;;;;;;7.53;3.85;;;19.50;94.10;;;;;;5094934;28;20047;-77
2022/08/14 05:05:23;;;;;;;7.22;4.13;;;19.50;94.20;;;;;;5096898;28;20126;-77
2022/08/14 05:07:52;;;;;;;5.60;3.40;;;19.50;94.20;;;;;;5096276;28;20043;-77
2022/08/14 05:10:22;;;;;;;8.27;4.13;;;19.50;94.20;;;;;;5095288;28;20039;-77
2022/08/14 05:12:48;;;;;;;5.43;3.22;;;19.60;94.20;;;;;;5103635;28;20032;-77
2022/08/14 05:15:14;;;;;;;7.10;3.70;;;19.60;94.20;;;;;;5094019;28;20032;-77
2022/08/14 05:17:43;;;;;;;8.45;3.80;;;19.60;94.30;;;;;;5103304;28;20474;-77
2022/08/14 05:20:09;;;;;;;6.25;3.60;;;19.60;94.40;;;;;;5096405;28;20517;-77
2022/08/14 05:22:34;;;;;;;8.52;3.63;;;19.60;94.40;;;;;;5103747;28;20130;-77
2022/08/14 05:25:02;;;;;;;6.95;4.35;;;19.60;94.40;;;;;;5095973;28;20173;-77
2022/08/14 05:27:28;;;;;;;5.00;3.10;;;19.60;94.40;;;;;;5083845;28;20032;-77
2022/08/14 05:29:54;;;;;;;5.85;3.50;;;19.60;94.50;;;;;;5077496;28;20042;-77
2022/08/14 05:32:20;;;;;;;5.30;3.33;;;19.70;94.50;;;;;;5082049;28;20128;-77
2022/08/14 05:34:46;;;;;;;6.55;3.65;;;19.70;94.60;;;;;;5094872;28;20082;-76
2022/08/14 05:37:13;;;;;;;7.28;3.60;;;19.70;94.60;;;;;;5104598;28;20028;-77
2022/08/14 05:39:40;;;;;;;6.18;3.35;;;19.70;94.60;;;;;;5095089;28;20615;-77
2022/08/14 05:42:06;;;;;;;7.40;3.70;;;20.00;94.60;;;;;;5100122;28;20138;-77
2022/08/14 05:44:32;;;;;;;6.72;4.10;;;20.30;93.80;;;;;;5072559;28;20039;-77
2022/08/14 05:46:58;;;;;;;5.40;3.63;;;20.40;93.50;;;;;;5088209;28;20040;-77
2022/08/14 05:49:23;;;;;;;8.27;4.38;;;20.40;93.80;;;;;;5088879;28;20460;-77
2022/08/14 05:51:49;;;;;;;5.68;3.45;;;20.40;93.70;;;;;;5104620;28;20071;-77
2022/08/14 05:54:15;;;;;;;7.00;4.00;;;20.30;93.90;;;;;;5080513;28;20043;-77
2022/08/14 05:56:40;;;;;;;4.97;3.20;;;20.30;94.10;;;;;;5085483;28;20066;-70
2022/08/14 05:59:06;;;;;;;6.10;3.38;;;20.20;94.10;;;;;;5096595;28;20645;-77
2022/08/14 06:01:31;;;;;;;5.78;3.13;;;20.30;94.20;;;;;;5092590;28;20377;-77
2022/08/14 06:03:57;;;;;;;4.97;3.20;;;20.20;94.30;;;;;;5078160;28;20477;-78
2022/08/14 06:06:23;;;;;;;5.30;2.95;;;20.20;94.40;;;;;;5093176;28;20032;-78
2022/08/14 06:08:48;;;;;;;5.75;3.28;;;20.30;94.40;;;;;;5057843;28;20029;-78
2022/08/14 06:11:14;;;;;;;5.35;3.70;;;20.30;94.40;;;;;;5071696;28;20520;-78
2022/08/14 06:13:42;;;;;;;7.05;4.03;;;20.30;94.40;;;;;;5088769;28;20135;-78
2022/08/14 06:16:08;;;;;;;5.38;3.13;;;20.30;94.50;;;;;;5065085;28;20440;-78
2022/08/14 06:18:35;;;;;;;4.43;3.00;;;20.30;94.50;;;;;;5081046;28;20039;-78
2022/08/14 06:21:02;;;;;;;6.53;3.55;;;20.30;94.50;;;;;;5080978;28;20075;-78
2022/08/14 06:23:28;;;;;;;6.53;4.43;;;20.30;94.50;;;;;;5080416;28;20519;-78
2022/08/14 06:25:53;;;;;;;6.63;3.88;;;20.30;94.60;;;;;;5092325;28;20047;-77
2022/08/14 06:28:21;;;;;;;5.15;3.45;;;20.40;94.80;;;;;;5089698;28;20488;-77
2022/08/14 06:30:47;;;;;;;6.07;3.70;;;20.40;94.70;;;;;;5082398;28;20627;-79
2022/08/14 06:33:15;;;;;;;7.18;3.53;;;20.40;94.80;;;;;;5088246;28;20127;-78
2022/08/14 06:35:40;;;;;;;5.90;3.67;;;20.50;95.30;;;;;;5071651;28;20436;-79
2022/08/14 06:38:06;;;;;;;5.55;3.35;;;20.70;95.20;;;;;;5091822;28;20228;-80
2022/08/14 06:40:34;;;;;;;5.13;3.28;;;20.90;95.20;;;;;;5079178;28;20064;-78
2022/08/14 06:43:05;;;;;;;6.78;3.72;;;21.00;95.20;;;;;;5096466;28;20047;-78
2022/08/14 06:45:33;;;;;;;4.97;3.40;;;21.10;95.10;;;;;;5078238;28;20044;-79
2022/08/14 06:48:00;;;;;;;6.00;3.20;;;21.20;94.90;;;;;;5087510;28;20043;-78
2022/08/14 06:50:26;;;;;;;5.40;3.30;;;21.40;94.90;;;;;;5075195;28;20566;-78
2022/08/14 06:52:53;;;;;;;6.35;2.88;;;21.40;94.80;;;;;;5089121;28;20106;-77
2022/08/14 06:55:19;;;;;;;4.72;3.08;;;21.50;94.90;;;;;;5094694;28;20035;-73
2022/08/14 06:57:48;;;;;;;5.07;2.88;;;21.50;94.70;;;;;;5087969;28;20034;-77
2022/08/14 07:00:18;;;;;;;4.65;3.10;;;21.60;94.80;;;;;;5100766;27;20107;-78
2022/08/14 07:05:47;;;;;;;6.17;3.20;;;21.70;94.40;;;;;;5085036;28;20044;-77
2022/08/14 07:08:28;;;;;;;4.78;2.95;;;21.80;94.30;;;;;;5074607;28;20188;-77
2022/08/14 07:10:59;;;;;;;4.40;2.60;;;21.90;94.30;;;;;;5094005;28;20043;-77
2022/08/14 07:13:25;;;;;;;4.60;2.47;;;21.90;94.00;;;;;;5089801;28;20036;-77
2022/08/14 07:15:53;;;;;;;7.57;3.10;;;22.00;93.90;;;;;;5072614;28;20093;-77
2022/08/14 07:18:24;;;;;;;3.92;2.30;;;22.00;93.90;;;;;;5080604;28;20036;-77
2022/08/14 07:20:51;;;;;;;4.10;2.40;;;22.10;93.90;;;;;;5097022;28;20070;-77
2022/08/14 07:23:18;;;;;;;3.83;2.67;;;22.10;93.90;;;;;;5094327;28;20052;-77
2022/08/14 07:25:45;;;;;;;4.30;2.90;;;22.20;93.80;;;;;;5091639;28;20032;-76
2022/08/14 07:28:12;;;;;;;5.60;2.92;;;22.20;93.60;;;;;;5078906;28;20435;-77
2022/08/14 07:30:38;;;;;;;5.43;3.22;;;22.30;93.70;;;;;;5085905;28;20047;-77
2022/08/14 07:33:04;;;;;;;4.97;2.92;;;22.30;93.60;;;;;;5088442;28;20400;-77
2022/08/14 07:35:31;;;;;;;5.10;3.10;;;22.40;93.50;;;;;;5067317;28;20043;-77
2022/08/14 07:37:57;;;;;;;5.05;3.25;;;22.40;93.30;;;;;;5091497;28;20032;-76
2022/08/14 07:40:23;;;;;;;3.83;2.38;;;22.40;93.30;;;;;;5091835;28;20057;-77
2022/08/14 07:42:49;;;;;;;4.00;2.50;;;22.50;93.30;;;;;;5067489;28;20061;-77
2022/08/14 07:45:15;;;;;;;4.05;2.65;;;22.50;93.40;;;;;;5095326;27;20036;-77
2022/08/14 07:47:42;;;;;;;4.20;2.65;;;22.50;93.30;;;;;;5077014;28;20559;-77
2022/08/14 07:50:16;;;;;;;4.18;2.60;;;22.50;93.20;;;;;;5095350;28;20051;-77
2022/08/14 07:52:43;;;;;;;4.50;2.78;;;22.60;93.40;;;;;;5062218;28;20123;-77
2022/08/14 07:55:11;;;;;;;3.72;2.55;;;22.70;93.10;;;;;;5098458;28;20039;-77
2022/08/14 07:57:39;;;;;;;4.32;2.70;;;22.70;92.80;;;;;;5075708;28;22083;-77
2022/08/14 08:00:17;;;;;;;5.05;3.08;;;22.70;92.80;;;;;;5096350;27;20032;-77
2022/08/14 08:02:46;;;;;;;3.85;2.17;;;22.80;93.00;;;;;;5090375;28;20036;-77
2022/08/14 08:05:14;;;;;;;4.30;2.55;;;22.80;92.80;;;;;;5067136;28;20040;-77
2022/08/14 08:07:41;;;;;;;4.70;2.90;;;22.90;92.60;;;;;;5075018;28;20474;-77
2022/08/14 08:10:33;;;;;;;3.97;2.60;;;22.90;92.40;;;;;;5095202;28;20093;-75
2022/08/14 08:13:06;;;;;;;4.30;2.63;;;22.90;92.50;;;;;;5084075;28;20071;-77
2022/08/14 08:15:35;;;;;;;4.32;2.92;;;23.00;92.20;;;;;;5079276;28;20043;-77
2022/08/14 08:18:03;;;;;;;5.57;2.53;;;23.00;92.20;;;;;;5077887;28;20519;-77
2022/08/14 08:20:31;;;;;;;4.00;2.38;;;23.10;92.30;;;;;;5100154;28;20089;-76
2022/08/14 08:22:58;;;;;;;3.58;2.80;;;23.10;92.40;;;;;;5085617;28;20056;-77
2022/08/14 08:25:29;;;;;;;4.20;2.80;;;23.20;92.50;;;;;;5102749;28;20047;-76
2022/08/14 08:28:07;;;;;;;3.58;2.15;;;23.10;92.20;;;;;;5084805;28;20048;-77
2022/08/14 08:30:36;;;;;;;4.10;2.70;;;23.20;92.00;;;;;;5089707;28;20044;-78
2022/08/14 08:33:03;;;;;;;4.85;2.85;;;23.30;92.10;;;;;;5091309;28;20258;-77
2022/08/14 08:35:33;;;;;;;4.18;2.45;;;23.30;91.90;;;;;;5091061;28;20059;-77
2022/08/14 08:38:07;;;;;;;4.65;2.60;;;23.40;91.90;;;;;;5083804;28;20031;-78
2022/08/14 08:40:42;;;;;;;4.05;2.47;;;23.40;91.50;;;;;;5074311;28;20066;-77
2022/08/14 08:43:18;;;;;;;6.17;2.73;;;23.50;91.40;;;;;;5076727;28;20043;-77
2022/08/14 08:45:56;;;;;;;3.42;2.20;;;23.50;91.10;;;;;;5098262;28;21402;-77
2022/08/14 08:48:25;;;;;;;3.92;2.78;;;23.60;91.10;;;;;;5084201;28;20043;-77
2022/08/14 08:50:50;;;;;;;4.25;2.75;;;23.50;91.00;;;;;;5081945;28;20435;-77
2022/08/14 08:53:16;;;;;;;4.85;2.92;;;23.60;91.00;;;;;;5097940;28;20038;-77
2022/08/14 08:55:44;;;;;;;3.58;2.45;;;23.70;91.00;;;;;;5092872;28;20040;-78
2022/08/14 08:58:12;;;;;;;4.03;2.63;;;23.70;90.70;;;;;;5074035;28;20043;-77
2022/08/14 09:00:39;;;;;;;4.40;2.67;;;23.80;90.50;;;;;;5082934;28;20047;-77
2022/08/14 09:03:06;;;;;;;3.88;2.10;;;23.80;90.30;;;;;;5093434;28;20048;-77
2022/08/14 09:05:34;;;;;;;4.25;2.45;;;23.90;90.20;;;;;;5093760;28;20042;-77
2022/08/14 09:08:17;;;;;;;4.43;2.03;;;24.00;90.10;;;;;;5077135;28;20121;-77
2022/08/14 09:10:44;;;;;;;4.32;2.72;;;23.90;89.40;;;;;;5077086;28;20035;-77
2022/08/14 09:13:11;;;;;;;3.33;2.08;;;23.90;89.40;;;;;;5084989;28;20039;-76
2022/08/14 09:15:47;;;;;;;5.10;2.45;;;24.00;89.30;;;;;;5081662;28;20040;-78
2022/08/14 09:18:16;;;;;;;4.55;2.50;;;24.00;88.00;;;;;;5089418;28;20097;-78
2022/08/14 09:20:45;;;;;;;3.22;2.33;;;24.10;88.40;;;;;;5082379;28;20506;-74
2022/08/14 09:23:13;;;;;;;4.38;2.60;;;24.10;88.10;;;;;;5096137;28;20079;-77
2022/08/14 09:25:40;;;;;;;4.88;2.72;;;24.20;88.30;;;;;;5066876;28;20052;-76
2022/08/14 09:28:07;;;;;;;4.13;2.45;;;24.20;88.20;;;;;;5103594;28;20366;-76
2022/08/14 09:30:36;;;;;;;3.80;2.40;;;24.20;88.00;;;;;;5103325;28;20032;-76
2022/08/14 09:33:02;;;;;;;4.07;2.25;;;24.30;87.80;;;;;;5088484;28;20216;-76
2022/08/14 09:35:33;;;;;;;4.38;2.67;;;24.30;87.80;;;;;;5081035;28;20322;-77
2022/08/14 09:38:08;;;;;;;3.40;2.28;;;24.30;87.00;;;;;;5077764;28;20118;-77
2022/08/14 09:40:53;;;;;;;4.40;2.58;;;24.40;86.50;;;;;;5087747;28;20057;-77
2022/08/14 09:43:42;;;;;;;3.08;2.08;;;24.40;86.40;;;;;;5103935;27;20161;-77
2022/08/14 09:46:07;;;;;;;3.67;2.33;;;24.40;85.70;;;;;;5076037;28;20047;-77
2022/08/14 09:48:33;;;;;;;3.10;2.30;;;24.50;86.60;;;;;;5086711;28;20059;-77
2022/08/14 09:50:59;;;;;;;4.57;2.10;;;24.50;86.20;;;;;;5100886;28;20036;-77
2022/08/14 09:53:58;;;;;;;3.83;2.25;;;24.60;86.20;;;;;;5088733;28;20088;-77
2022/08/14 09:56:24;;;;;;;3.70;2.25;;;24.60;84.30;;;;;;5083508;28;20051;-77
2022/08/14 09:58:51;;;;;;;3.22;1.77;;;24.60;85.10;;;;;;5084277;28;20047;-77
2022/08/14 10:01:18;;;;;;;3.28;2.13;;;24.70;84.50;;;;;;5093675;28;20082;-77
2022/08/14 10:03:55;;;;;;;3.75;1.92;;;24.70;84.80;;;;;;5058015;28;20040;-77
2022/08/14 10:06:27;;;;;;;2.60;1.70;;;24.70;83.70;;;;;;5095249;28;20040;-77
2022/08/14 10:09:00;;;;;;;3.17;1.67;;;24.80;84.00;;;;;;5098955;28;20040;-77
2022/08/14 10:11:28;;;;;;;4.25;1.98;;;24.80;83.50;;;;;;5088316;28;20040;-79
2022/08/14 10:14:09;;;;;;;3.67;2.30;;;24.80;82.80;;;;;;5067514;28;20036;-75
2022/08/14 10:16:41;;;;;;;3.67;2.08;;;24.80;82.40;;;;;;5094117;28;20048;-76
2022/08/14 10:19:09;;;;;;;3.60;1.90;;;24.90;81.90;;;;;;5092424;28;20325;-76
2022/08/14 10:21:37;;;;;;;3.78;1.70;;;24.90;82.10;;;;;;5097420;28;20075;-76
2022/08/14 10:24:08;;;;;;;3.72;2.20;;;24.90;81.90;;;;;;5076063;28;20481;-75
2022/08/14 10:26:34;;;;;;;2.97;1.85;;;24.90;81.70;;;;;;5092495;28;20088;-76
2022/08/14 10:29:11;;;;;;;3.45;2.00;;;24.90;81.80;;;;;;5098291;28;20436;-77
2022/08/14 10:31:37;;;;;;;3.75;1.83;;;25.00;81.20;;;;;;5079626;28;20375;-77
2022/08/14 10:34:06;;;;;;;3.75;2.42;;;25.00;81.70;;;;;;5076781;28;20023;-77
2022/08/14 10:36:43;;;;;;;3.53;2.10;;;25.00;81.20;;;;;;5104005;28;20051;-77
2022/08/14 10:39:20;;;;;;;3.58;2.33;;;25.00;80.80;;;;;;5098387;28;20044;-77
2022/08/14 10:41:47;;;;;;;3.80;1.98;;;25.10;80.30;;;;;;5084057;28;20508;-77
2022/08/14 10:44:17;;;;;;;3.95;2.10;;;25.10;81.30;;;;;;5065669;28;20120;-77
2022/08/14 10:46:51;;;;;;;2.85;1.88;;;25.20;80.90;;;;;;5080118;28;20032;-77
2022/08/14 10:49:22;;;;;;;2.75;1.90;;;25.20;79.90;;;;;;5080658;28;20117;-74
2022/08/14 10:52:09;;;;;;;3.38;2.13;;;25.20;80.10;;;;;;5090674;28;20413;-77
2022/08/14 10:54:39;;;;;;;3.10;2.30;;;25.20;78.70;;;;;;5081757;28;20201;-72
2022/08/14 10:57:26;;;;;;;3.35;1.98;;;25.20;79.40;;;;;;5095003;27;20151;-74
2022/08/14 10:59:58;;;;;;;3.25;2.35;;;25.30;77.50;;;;;;5066722;28;20477;-79
2022/08/14 11:02:29;;;;;;;3.88;2.65;;;25.30;78.60;;;;;;5098115;28;20152;-79
2022/08/14 11:05:03;;;;;;;4.35;2.72;;;25.30;78.40;;;;;;5083482;28;20051;-80
2022/08/14 11:07:29;;;;;;;5.47;2.28;;;25.30;78.50;;;;;;5101633;28;20564;-79
2022/08/14 11:09:57;;;;;;;3.28;2.25;;;25.40;78.80;;;;;;5081616;28;20040;-80
2022/08/14 11:12:37;;;;;;;3.95;2.42;;;25.40;78.60;;;;;;5080446;28;20400;-79
2022/08/14 11:15:03;;;;;;;3.95;2.60;;;25.50;78.00;;;;;;5098512;27;20397;-79
2022/08/14 11:17:35;;;;;;;5.80;2.63;;;25.50;77.80;;;;;;5097178;28;20031;-79
2022/08/14 11:20:04;;;;;;;3.55;2.28;;;25.50;77.30;;;;;;5084421;28;20435;-79
2022/08/14 11:22:31;;;;;;;3.45;2.30;;;25.50;77.20;;;;;;5082900;28;20055;-79
2022/08/14 11:25:12;;;;;;;4.10;2.42;;;25.60;77.40;;;;;;5057801;28;20582;-79
2022/08/14 11:27:40;;;;;;;3.58;2.38;;;25.60;76.70;;;;;;5101045;27;20043;-78
2022/08/14 11:30:12;;;;;;;3.97;2.50;;;25.50;77.40;;;;;;5087770;28;20766;-79
2022/08/14 11:32:41;;;;;;;3.78;2.38;;;25.60;78.10;;;;;;5100131;28;20055;-80
2022/08/14 11:35:14;;;;;;;3.67;2.40;;;25.70;78.20;;;;;;5104540;27;20044;-79
2022/08/14 11:37:58;;;;;;;3.00;2.10;;;25.70;77.30;;;;;;5079944;28;20794;-79
2022/08/14 11:40:25;;;;;;;4.10;2.20;;;25.80;76.40;;;;;;5090967;28;20045;-79
2022/08/14 11:42:55;;;;;;;4.50;2.47;;;25.90;76.20;;;;;;5071729;28;20635;-80
2022/08/14 11:45:27;;;;;;;4.57;2.40;;;26.00;76.20;;;;;;5085552;28;20041;-80
2022/08/14 11:47:55;;;;;;;4.15;2.50;;;26.00;74.90;;;;;;5080862;28;20039;-80
2022/08/14 11:50:31;;;;;;;3.40;2.25;;;26.10;75.20;;;;;;5093268;27;20054;-80
2022/08/14 11:52:58;;;;;;;3.85;2.33;;;26.10;74.00;;;;;;5092261;27;20043;-77
2022/08/14 11:55:25;;;;;;;4.00;2.30;;;26.20;74.40;;;;;;5066255;28;20357;-79
2022/08/14 11:58:03;;;;;;;3.72;2.22;;;26.20;74.10;;;;;;5098994;27;20047;-79
2022/08/14 12:00:29;;;;;;;3.67;2.42;;;26.20;73.20;;;;;;5086076;28;20039;-80
2022/08/14 12:03:00;;;;;;;4.18;2.65;;;26.20;73.80;;;;;;5083081;28;20550;-79
2022/08/14 12:05:30;;;;;;;3.30;2.13;;;26.20;73.20;;;;;;5072745;28;20047;-79
2022/08/14 12:07:58;;;;;;;3.47;2.28;;;26.30;73.60;;;;;;5090686;28;20089;-79
2022/08/14 12:10:23;;;;;;;4.10;2.20;;;26.30;73.10;;;;;;5081140;28;20080;-79
2022/08/14 12:12:51;;;;;;;3.75;2.38;;;26.20;73.20;;;;;;5071804;28;20797;-80
2022/08/14 12:15:28;;;;;;;3.83;2.00;;;26.30;73.00;;;;;;5084176;28;20093;-80
2022/08/14 12:17:53;;;;;;;3.20;2.10;;;26.40;71.30;;;;;;5073102;28;20494;-80
2022/08/14 12:20:28;;;;;;;3.50;2.10;;;26.40;71.70;;;;;;5072293;28;20134;-79
2022/08/14 12:22:54;;;;;;;;;;;26.50;71.00;;;;;;5092751;28;20044;-78
2022/08/14 12:25:22;;;;;;;3.58;2.15;;;26.60;70.30;;;;;;5093838;28;19922;-79
2022/08/14 12:27:50;;;;;;;5.22;2.22;;;26.70;71.80;;;;;;5093306;28;20065;-80
2022/08/14 12:30:33;;;;;;;2.67;1.95;;;26.80;71.00;;;;;;5094961;28;20044;-80
2022/08/14 12:33:04;;;;;;;3.17;1.67;;;26.80;68.70;;;;;;5078255;28;20036;-80
2022/08/14 12:35:41;;;;;;;4.07;2.00;;;26.80;69.80;;;;;;5099360;28;20277;-80
2022/08/14 12:38:09;;;;;;;3.90;2.00;;;26.80;69.50;;;;;;5095640;28;20047;-80
2022/08/14 12:40:46;;;;;;;3.53;1.90;;;26.70;70.30;;;;;;5096522;28;20047;-80
2022/08/14 12:43:12;;;;;;;4.15;2.15;;;26.80;69.30;;;;;;5077050;28;20047;-79
2022/08/14 12:45:38;;;;;;;3.22;1.95;;;26.70;70.10;;;;;;5079278;28;20052;-79
2022/08/14 12:48:05;;;;;;;3.42;2.00;;;26.70;70.00;;;;;;5081360;28;20105;-79
2022/08/14 12:50:35;;;;;;;3.17;1.80;;;26.70;69.90;;;;;;5098343;28;20036;-79
2022/08/14 12:53:01;;;;;;;2.97;1.75;;;26.60;69.60;;;;;;5075650;28;20040;-80
2022/08/14 12:55:27;;;;;;;3.60;2.08;;;26.60;70.10;;;;;;5081042;28;20084;-80
2022/08/14 12:57:56;;;;;;;3.30;1.83;;;26.60;69.80;;;;;;5093040;28;20062;-80
2022/08/14 13:00:24;;;;;;;2.85;2.00;;;26.60;69.90;;;;;;5083882;28;20043;-79
2022/08/14 13:02:52;;;;;;;4.45;2.20;;;26.60;69.90;;;;;;5089248;28;20039;-80
2022/08/14 13:05:22;;;;;;;2.75;1.92;;;26.60;70.30;;;;;;5087479;28;20081;-80
2022/08/14 13:07:50;;;;;;;3.15;1.90;;;26.70;69.80;;;;;;5092900;28;20673;-79
2022/08/14 13:10:19;;;;;;;2.83;1.75;;;26.70;69.60;;;;;;5071889;28;20048;-80